Berg en Dal, Netherlands
Current Conditions -  °F | °C
As of 2:46 PM on Thursday 30 Oct 2014 (Local Time) from EHVK Reporting Station
Haze Haze  
Wind Chill: 61°   Ceiling: 9200
Heat Index: 61°   Visibility: 2.6mi
Dew Point: 57°   Wind: 7mph
Humidity: 88%   Direction: 170°S
Pressure: 30.18"   Gusts: NA
Location:  51.82°N, 5.92°E
Report Text: EHVK 301346Z AUTO 17006KT 4200 BR FEW007 OVC092 16/14 Q1022 GRN 17006KT 4000 BR FEW008 BKN100 BECMG 5000
Loading
Personal Weather Stations






























Interactive Weather Map
Tropical Storm Tracking
New forecast layout! Learn more

10-Day Weather Forecast

Advertisements
Track Severe Weather on mobile